createdAt,value
2022-11-07T00:01:23.234Z,98196.81
2022-11-07T00:03:54.056Z,98200.03
2022-11-07T00:06:21.268Z,98206.75
2022-11-07T00:08:49.314Z,98208.75
2022-11-07T00:11:16.283Z,98209.91
2022-11-07T00:13:43.262Z,98209.78
2022-11-07T00:16:11.489Z,98215.25
2022-11-07T00:18:38.624Z,98226.19
2022-11-07T00:21:09.680Z,98217.53
2022-11-07T00:23:39.920Z,98215.22
2022-11-07T00:26:10.681Z,98223.94
2022-11-07T00:28:42.628Z,98215.44
2022-11-07T00:31:12.682Z,98219.53
2022-11-07T00:33:41.028Z,98229.34
2022-11-07T00:36:09.704Z,98225.22
2022-11-07T00:38:36.734Z,98222.41
2022-11-07T00:41:06.473Z,98230.31
2022-11-07T00:43:34.220Z,98230.47
2022-11-07T00:46:03.984Z,98237.16
2022-11-07T00:48:32.414Z,98241.56
2022-11-07T00:51:25.596Z,98252.25
2022-11-07T00:53:52.995Z,98252.56
2022-11-07T00:56:23.801Z,98238.38
2022-11-07T00:58:58.341Z,98258.03
2022-11-07T01:01:32.512Z,98256.47
2022-11-07T01:04:17.927Z,98256.38
2022-11-07T01:06:46.927Z,98257.03
2022-11-07T01:09:19.038Z,98257.50
2022-11-07T01:11:47.010Z,98247.56
2022-11-07T01:14:16.983Z,98245.84
2022-11-07T01:16:44.529Z,98254.88
2022-11-07T01:19:11.695Z,98253.50
2022-11-07T01:21:41.240Z,98249.31
2022-11-07T01:24:11.358Z,98241.94
2022-11-07T01:26:40.386Z,98243.75
2022-11-07T01:29:07.571Z,98249.03
2022-11-07T01:31:35.300Z,98241.91
2022-11-07T01:34:02.468Z,98240.38
2022-11-07T01:36:29.510Z,98236.78
2022-11-07T01:38:56.404Z,98237.03
2022-11-07T01:41:29.041Z,98235.47
2022-11-07T01:44:06.176Z,98239.31
2022-11-07T01:46:39.691Z,98233.06
2022-11-07T01:49:26.725Z,98232.09
2022-11-07T01:52:06.517Z,98228.41
2022-11-07T01:54:57.197Z,98233.19
2022-11-07T01:57:39.838Z,98233.53
2022-11-07T02:00:11.149Z,98235.72
2022-11-07T02:02:39.116Z,98238.34
2022-11-07T02:05:09.115Z,98240.75
2022-11-07T02:07:37.917Z,98232.81
2022-11-07T02:10:05.566Z,98230.91
2022-11-07T02:12:32.475Z,98230.19
2022-11-07T02:14:59.443Z,98232.00
2022-11-07T02:17:26.424Z,98224.09
2022-11-07T02:19:56.525Z,98219.16
2022-11-07T02:22:43.284Z,98225.66
2022-11-07T02:25:16.747Z,98220.84
2022-11-07T02:27:45.647Z,98225.88
2022-11-07T02:30:33.752Z,98231.88
2022-11-07T02:33:02.471Z,98213.88
2022-11-07T02:35:39.276Z,98215.22
2022-11-07T02:38:16.161Z,98219.88
2022-11-07T02:40:48.125Z,98215.06
2022-11-07T02:43:19.340Z,98220.97
2022-11-07T02:45:47.888Z,98231.63
2022-11-07T02:48:14.828Z,98222.38
2022-11-07T02:50:42.898Z,98225.16
2022-11-07T02:53:10.754Z,98231.03
2022-11-07T02:55:37.953Z,98223.97
2022-11-07T02:58:05.285Z,98228.13
2022-11-07T03:00:32.189Z,98236.78
2022-11-07T03:02:59.183Z,98231.41
2022-11-07T03:05:26.152Z,98232.81
2022-11-07T03:07:53.172Z,98232.97
2022-11-07T03:10:20.089Z,98237.25
2022-11-07T03:12:47.209Z,98239.28
2022-11-07T03:15:14.898Z,98239.28
2022-11-07T03:17:42.306Z,98243.59
2022-11-07T03:20:10.584Z,98241.81
2022-11-07T03:22:37.887Z,98246.25
2022-11-07T03:25:06.328Z,98242.34
2022-11-07T03:27:33.304Z,98249.19
2022-11-07T03:30:00.254Z,98241.94
2022-11-07T03:32:27.426Z,98245.66
2022-11-07T03:34:54.365Z,98240.41
2022-11-07T03:37:21.260Z,98248.03
2022-11-07T03:39:48.219Z,98243.25
2022-11-07T03:42:15.124Z,98249.63
2022-11-07T03:44:42.049Z,98250.72
2022-11-07T03:47:09.021Z,98249.53
2022-11-07T03:49:35.973Z,98249.16
2022-11-07T03:52:03.007Z,98253.59
2022-11-07T03:54:29.936Z,98259.84
2022-11-07T03:56:56.854Z,98255.50
2022-11-07T03:59:23.760Z,98261.41
2022-11-07T04:01:50.797Z,98263.06
2022-11-07T04:04:17.854Z,98255.75
2022-11-07T04:06:44.788Z,98262.34
2022-11-07T04:09:11.689Z,98265.47
2022-11-07T04:11:57.151Z,98268.13
2022-11-07T04:14:42.478Z,98267.03
2022-11-07T04:17:20.479Z,98274.59
2022-11-07T04:19:50.279Z,98270.50
2022-11-07T04:22:18.445Z,98279.41
2022-11-07T04:24:46.346Z,98278.53
2022-11-07T04:27:33.846Z,98272.03
2022-11-07T04:30:19.191Z,98286.06
2022-11-07T04:32:55.414Z,98296.88
2022-11-07T04:35:26.100Z,98290.50
2022-11-07T04:37:53.454Z,98290.53
2022-11-07T04:40:21.355Z,98295.47
2022-11-07T04:42:49.787Z,98298.34
2022-11-07T04:45:17.543Z,98305.56
2022-11-07T04:47:44.666Z,98300.63
2022-11-07T04:50:15.237Z,98306.44
2022-11-07T04:52:42.908Z,98300.13
2022-11-07T04:55:23.695Z,98303.16
2022-11-07T04:57:51.067Z,98315.63
2022-11-07T05:00:19.612Z,98309.63
2022-11-07T05:02:47.693Z,98319.94
2022-11-07T05:05:15.607Z,98319.44
2022-11-07T05:07:42.954Z,98314.63
2022-11-07T05:10:25.013Z,98318.00
2022-11-07T05:12:52.672Z,98315.34
2022-11-07T05:15:19.960Z,98316.53
2022-11-07T05:17:47.222Z,98316.06
2022-11-07T05:20:36.821Z,98316.47
2022-11-07T05:23:18.447Z,98322.59
2022-11-07T05:25:54.303Z,98327.69
2022-11-07T05:28:38.760Z,98318.19
2022-11-07T05:31:08.363Z,98313.84
2022-11-07T05:33:35.984Z,98312.13
2022-11-07T05:36:14.576Z,98314.00
2022-11-07T05:38:44.676Z,98309.09
2022-11-07T05:41:12.855Z,98316.88
2022-11-07T05:43:40.297Z,98313.66
2022-11-07T05:46:08.035Z,98306.50
2022-11-07T05:48:35.534Z,98321.03
2022-11-07T05:51:03.033Z,98318.75
2022-11-07T05:53:30.639Z,98315.34
2022-11-07T05:55:57.751Z,98315.84
2022-11-07T05:58:25.157Z,98319.22
2022-11-07T06:00:52.284Z,98317.75
2022-11-07T06:03:22.675Z,98327.88
2022-11-07T06:05:49.747Z,98333.81
2022-11-07T06:08:16.897Z,98327.38
2022-11-07T06:10:44.065Z,98324.97
2022-11-07T06:13:14.410Z,98326.13
2022-11-07T06:15:43.334Z,98326.66
2022-11-07T06:18:18.425Z,98325.34
2022-11-07T06:20:46.639Z,98327.19
2022-11-07T06:23:14.229Z,98334.59
2022-11-07T06:25:41.837Z,98331.25
2022-11-07T06:28:12.082Z,98337.13
2022-11-07T06:30:39.347Z,98348.09
2022-11-07T06:33:10.259Z,98352.03
2022-11-07T06:35:37.414Z,98355.00
2022-11-07T06:38:08.787Z,98352.91
2022-11-07T06:40:35.970Z,98347.97
2022-11-07T06:43:17.437Z,98349.06
2022-11-07T06:45:46.639Z,98344.66
2022-11-07T06:48:13.683Z,98341.44
2022-11-07T06:50:40.667Z,98346.59
2022-11-07T06:53:13.389Z,98342.28
2022-11-07T06:55:40.752Z,98348.56
2022-11-07T06:58:08.028Z,98360.09
2022-11-07T07:00:36.559Z,98352.88
2022-11-07T07:03:04.799Z,98359.00
2022-11-07T07:05:36.531Z,98359.72
2022-11-07T07:08:05.398Z,98366.00
2022-11-07T07:10:37.968Z,98369.66
2022-11-07T07:13:04.937Z,98374.31
2022-11-07T07:15:47.855Z,98377.50
2022-11-07T07:18:17.161Z,98381.22
2022-11-07T07:20:44.100Z,98386.75
2022-11-07T07:23:11.026Z,98388.09
2022-11-07T07:25:38.015Z,98391.50
2022-11-07T07:28:04.951Z,98397.13
2022-11-07T07:30:31.996Z,98401.06
2022-11-07T07:32:59.029Z,98396.22
2022-11-07T07:35:26.095Z,98402.75
2022-11-07T07:37:53.290Z,98404.50
2022-11-07T07:40:20.918Z,98402.28
2022-11-07T07:42:48.121Z,98404.94
2022-11-07T07:45:16.228Z,98410.34
2022-11-07T07:47:43.425Z,98404.97
2022-11-07T07:50:12.653Z,98411.81
2022-11-07T07:52:39.712Z,98412.94
2022-11-07T07:55:09.392Z,98412.94
2022-11-07T07:57:45.243Z,98401.28
2022-11-07T08:00:12.933Z,98407.00
2022-11-07T08:02:44.154Z,98412.59
2022-11-07T08:05:13.409Z,98416.09
2022-11-07T08:07:51.169Z,98410.66
2022-11-07T08:13:06.607Z,98417.19
2022-11-07T08:15:33.578Z,98422.13
2022-11-07T08:18:05.017Z,98419.75
2022-11-07T08:20:31.999Z,98421.31
2022-11-07T08:23:14.531Z,98415.72
2022-11-07T08:25:43.748Z,98415.31
2022-11-07T08:28:10.719Z,98416.72
2022-11-07T08:30:37.663Z,98422.69
2022-11-07T08:33:04.857Z,98432.75
2022-11-07T08:35:32.198Z,98422.69
2022-11-07T08:37:59.708Z,98423.44
2022-11-07T08:40:27.309Z,98416.41
2022-11-07T08:43:00.385Z,98426.50
2022-11-07T08:45:27.601Z,98431.47
2022-11-07T08:48:00.919Z,98424.34
2022-11-07T08:50:28.018Z,98436.25
2022-11-07T08:52:59.633Z,98434.81
2022-11-07T08:55:29.631Z,98439.53
2022-11-07T08:58:01.805Z,98432.72
2022-11-07T09:00:29.523Z,98438.59
2022-11-07T09:03:30.861Z,98430.22
2022-11-07T09:05:43.625Z,98431.19
2022-11-07T09:08:10.537Z,98432.31
2022-11-07T09:10:37.447Z,98434.56
2022-11-07T09:13:04.600Z,98442.16
2022-11-07T09:15:31.846Z,98440.19
2022-11-07T09:18:06.410Z,98440.72
2022-11-07T09:20:34.603Z,98439.38
2022-11-07T09:23:01.560Z,98446.91
2022-11-07T09:25:29.076Z,98446.91
2022-11-07T09:27:56.102Z,98446.63
2022-11-07T09:30:23.414Z,98454.19
2022-11-07T09:32:50.338Z,98457.63
2022-11-07T09:35:17.298Z,98450.22
2022-11-07T09:37:44.237Z,98454.72
2022-11-07T09:40:34.253Z,98457.81
2022-11-07T09:43:20.021Z,98456.94
2022-11-07T09:45:57.023Z,98459.19
2022-11-07T09:48:26.271Z,98462.22
2022-11-07T09:50:53.373Z,98461.75
2022-11-07T09:53:40.022Z,98457.06
2022-11-07T09:56:11.088Z,98456.19
2022-11-07T09:58:51.590Z,98456.38
2022-11-07T10:01:21.250Z,98460.56
2022-11-07T10:04:18.199Z,98452.53
2022-11-07T10:07:11.812Z,98463.06
2022-11-07T10:09:56.110Z,98450.75
2022-11-07T10:13:07.154Z,98459.13
2022-11-07T10:15:58.816Z,98464.91
2022-11-07T10:18:37.334Z,98461.78
2022-11-07T10:21:47.809Z,98458.38
2022-11-07T10:24:23.439Z,98463.88
2022-11-07T10:26:50.353Z,98461.66
2022-11-07T10:29:23.567Z,98457.47
2022-11-07T10:32:11.653Z,98458.75
2022-11-07T10:34:53.071Z,98459.94
2022-11-07T10:37:21.281Z,98457.38
2022-11-07T10:39:48.219Z,98454.53
2022-11-07T10:42:23.002Z,98448.00
2022-11-07T10:44:51.536Z,98440.28
2022-11-07T10:47:24.837Z,98440.31
2022-11-07T10:50:01.349Z,98433.44
2022-11-07T10:52:29.701Z,98428.53
2022-11-07T10:55:16.930Z,98427.19
2022-11-07T10:57:53.413Z,98421.59
2022-11-07T11:00:32.624Z,98413.59
2022-11-07T11:03:00.311Z,98419.88
2022-11-07T11:05:47.548Z,98415.28
2022-11-07T11:08:19.217Z,98415.16
2022-11-07T11:10:48.647Z,98425.16
2022-11-07T11:13:33.102Z,98419.47
2022-11-07T11:16:23.116Z,98412.13
2022-11-07T11:19:01.159Z,98410.28
2022-11-07T11:21:40.675Z,98408.47
2022-11-07T11:24:37.341Z,98411.81
2022-11-07T11:27:12.480Z,98417.03
2022-11-07T11:30:07.279Z,98415.31
2022-11-07T11:32:49.773Z,98410.22
2022-11-07T11:35:28.463Z,98413.38
2022-11-07T11:38:18.007Z,98416.88
2022-11-07T11:40:59.278Z,98406.09
2022-11-07T11:43:41.907Z,98420.59
2022-11-07T11:46:19.150Z,98413.41
2022-11-07T11:49:17.876Z,98418.19
2022-11-07T11:52:04.127Z,98413.41
2022-11-07T11:54:31.081Z,98410.09
2022-11-07T11:57:25.573Z,98405.19
2022-11-07T12:00:00.860Z,98401.59
2022-11-07T12:02:57.486Z,98403.03
2022-11-07T12:06:00.939Z,98406.56
2022-11-07T12:09:04.380Z,98401.44
2022-11-07T12:11:43.107Z,98402.09
2022-11-07T12:14:27.389Z,98402.66
2022-11-07T12:17:23.107Z,98400.63
2022-11-07T12:20:10.467Z,98398.94
2022-11-07T12:23:23.077Z,98402.91
2022-11-07T12:26:01.620Z,98387.69
2022-11-07T12:28:54.613Z,98394.47
2022-11-07T12:31:57.292Z,98394.41
2022-11-07T12:35:02.820Z,98396.34
2022-11-07T12:38:04.977Z,98394.94
2022-11-07T12:40:49.827Z,98394.88
2022-11-07T12:43:48.018Z,98383.47
2022-11-07T12:46:30.764Z,98389.97
2022-11-07T12:49:30.964Z,98383.19
2022-11-07T12:52:09.671Z,98378.66
2022-11-07T12:54:59.554Z,98379.25
2022-11-07T12:57:31.742Z,98385.56
2022-11-07T13:00:12.004Z,98384.53
2022-11-07T13:03:21.785Z,98378.25
2022-11-07T13:06:17.464Z,98373.88
2022-11-07T13:09:21.825Z,98380.44
2022-11-07T13:11:56.365Z,98384.31
2022-11-07T13:14:31.117Z,98382.94
2022-11-07T13:17:20.953Z,98379.53
2022-11-07T13:20:06.296Z,98381.13
2022-11-07T13:22:41.250Z,98377.91
2022-11-07T13:25:16.672Z,98375.50
2022-11-07T13:28:24.000Z,98360.25
2022-11-07T13:31:02.453Z,98358.06
2022-11-07T13:33:35.689Z,98358.28
2022-11-07T13:36:26.325Z,98356.09
2022-11-07T13:38:57.797Z,98360.53
2022-11-07T13:41:25.447Z,98370.03
2022-11-07T13:44:05.621Z,98368.75
2022-11-07T13:46:47.208Z,98365.41
2022-11-07T13:49:19.933Z,98367.25
2022-11-07T13:51:50.204Z,98368.09
2022-11-07T13:54:50.115Z,98371.94
2022-11-07T13:58:05.995Z,98372.72
2022-11-07T14:00:34.698Z,98370.66
2022-11-07T14:03:02.250Z,98363.88
2022-11-07T14:05:37.129Z,98364.81
2022-11-07T14:08:31.227Z,98368.59
2022-11-07T14:10:59.479Z,98374.91
2022-11-07T14:13:41.020Z,98371.84
2022-11-07T14:16:24.016Z,98376.50
2022-11-07T14:18:59.253Z,98379.91
2022-11-07T14:21:36.778Z,98384.16
2022-11-07T14:24:20.672Z,98386.13
2022-11-07T14:27:05.851Z,98390.25
2022-11-07T14:29:33.193Z,98385.81
2022-11-07T14:32:03.995Z,98371.53
2022-11-07T14:34:31.313Z,98381.78
2022-11-07T14:37:01.591Z,98377.13
2022-11-07T14:39:32.097Z,98376.28
2022-11-07T14:42:02.499Z,98373.38
2022-11-07T14:44:59.532Z,98377.34
2022-11-07T14:47:33.095Z,98368.78
2022-11-07T14:50:02.003Z,98367.88
2022-11-07T14:52:39.834Z,98371.09
2022-11-07T14:55:11.551Z,98369.66
2022-11-07T14:57:39.924Z,98374.06
2022-11-07T15:00:14.190Z,98371.00
2022-11-07T15:02:41.828Z,98368.63
2022-11-07T15:05:37.983Z,98373.53
2022-11-07T15:08:05.326Z,98373.81
2022-11-07T15:10:38.871Z,98362.78
2022-11-07T15:13:24.998Z,98378.03
2022-11-07T15:16:04.723Z,98370.88
2022-11-07T15:18:38.527Z,98375.38
2022-11-07T15:21:06.311Z,98369.53
2022-11-07T15:23:35.330Z,98368.81
2022-11-07T15:26:08.382Z,98374.56
2022-11-07T15:28:50.280Z,98367.72
2022-11-07T15:31:27.810Z,98373.47
2022-11-07T15:33:58.439Z,98369.69
2022-11-07T15:36:25.735Z,98376.97
2022-11-07T15:38:54.043Z,98374.59
2022-11-07T15:41:21.157Z,98373.38
2022-11-07T15:43:48.115Z,98372.94
2022-11-07T15:46:28.760Z,98380.06
2022-11-07T15:48:56.732Z,98376.84
2022-11-07T15:51:23.866Z,98379.66
2022-11-07T15:53:50.907Z,98378.38
2022-11-07T15:56:22.328Z,98374.59
2022-11-07T15:58:51.011Z,98376.72
2022-11-07T16:01:18.135Z,98371.09
2022-11-07T16:03:45.333Z,98373.19
2022-11-07T16:06:28.984Z,98373.19
2022-11-07T16:08:56.735Z,98368.88
2022-11-07T16:11:23.778Z,98370.13
2022-11-07T16:13:50.943Z,98368.59
2022-11-07T16:16:22.160Z,98367.34
2022-11-07T16:18:51.354Z,98371.09
2022-11-07T16:21:19.708Z,98378.50
2022-11-07T16:23:49.594Z,98374.19
2022-11-07T16:26:24.994Z,98369.03
2022-11-07T16:28:51.998Z,98368.75
2022-11-07T16:31:19.068Z,98375.59
2022-11-07T16:33:46.035Z,98373.78
2022-11-07T16:36:25.796Z,98379.50
2022-11-07T16:38:53.154Z,98372.78
2022-11-07T16:41:20.421Z,98373.06
2022-11-07T16:43:48.100Z,98376.72
2022-11-07T16:46:21.392Z,98387.88
2022-11-07T16:48:53.202Z,98386.47
2022-11-07T16:51:22.116Z,98393.19
2022-11-07T16:53:49.335Z,98393.59
2022-11-07T16:56:30.486Z,98395.09
2022-11-07T16:58:58.966Z,98389.25
2022-11-07T17:01:27.926Z,98396.06
2022-11-07T17:03:55.243Z,98388.63
2022-11-07T17:06:31.665Z,98391.28
2022-11-07T17:09:08.779Z,98393.63
2022-11-07T17:11:39.227Z,98386.94
2022-11-07T17:14:06.267Z,98388.50
2022-11-07T17:16:36.538Z,98387.25
2022-11-07T17:19:05.223Z,98393.59
2022-11-07T17:21:37.612Z,98388.69
2022-11-07T17:24:05.384Z,98392.50
2022-11-07T17:26:35.707Z,98388.28
2022-11-07T17:29:08.161Z,98397.41
2022-11-07T17:31:35.343Z,98387.16
2022-11-07T17:34:02.515Z,98386.47
2022-11-07T17:36:38.008Z,98388.13
2022-11-07T17:39:11.972Z,98392.38
2022-11-07T17:41:41.103Z,98392.22
2022-11-07T17:44:08.849Z,98377.44
2022-11-07T17:46:43.161Z,98386.53
2022-11-07T17:49:14.057Z,98388.50
2022-11-07T17:51:42.088Z,98385.75
2022-11-07T17:54:14.810Z,98384.91
2022-11-07T17:56:42.562Z,98394.22
2022-11-07T17:59:15.749Z,98386.16
2022-11-07T18:01:43.873Z,98390.47
2022-11-07T18:04:13.662Z,98392.56
2022-11-07T18:06:42.669Z,98391.94
2022-11-07T18:09:15.719Z,98392.56
2022-11-07T18:11:43.679Z,98385.91
2022-11-07T18:14:13.509Z,98383.34
2022-11-07T18:16:40.482Z,98381.91
2022-11-07T18:19:07.528Z,98377.72
2022-11-07T18:21:34.573Z,98380.97
2022-11-07T18:24:02.107Z,98374.38
2022-11-07T18:26:31.202Z,98378.59
2022-11-07T18:29:03.506Z,98379.28
2022-11-07T18:31:30.773Z,98380.91
2022-11-07T18:34:00.192Z,98378.69
2022-11-07T18:36:28.451Z,98381.56
2022-11-07T18:38:55.432Z,98377.50
2022-11-07T18:41:23.821Z,98377.38
2022-11-07T18:43:50.940Z,98365.97
2022-11-07T18:46:19.343Z,98374.38
2022-11-07T18:48:46.917Z,98374.47
2022-11-07T18:51:23.982Z,98364.13
2022-11-07T18:53:53.557Z,98366.06
2022-11-07T18:56:21.582Z,98363.53
2022-11-07T18:58:48.623Z,98365.84
2022-11-07T19:01:24.376Z,98367.22
2022-11-07T19:03:52.705Z,98353.22
2022-11-07T19:06:22.147Z,98346.63
2022-11-07T19:08:50.085Z,98349.63
2022-11-07T19:11:28.772Z,98353.81
2022-11-07T19:14:00.874Z,98361.72
2022-11-07T19:16:28.794Z,98360.38
2022-11-07T19:18:55.764Z,98365.31
2022-11-07T19:21:23.526Z,98356.16
2022-11-07T19:23:51.341Z,98364.28
2022-11-07T19:26:21.628Z,98366.78
2022-11-07T19:28:49.092Z,98355.47
2022-11-07T19:31:16.866Z,98361.09
2022-11-07T19:33:44.677Z,98356.72
2022-11-07T19:36:18.243Z,98367.81
2022-11-07T19:38:46.225Z,98354.25
2022-11-07T19:41:15.527Z,98363.88
2022-11-07T19:43:45.343Z,98369.47
2022-11-07T19:46:22.001Z,98368.84
2022-11-07T19:48:50.321Z,98371.38
2022-11-07T19:51:22.470Z,98364.81
2022-11-07T19:53:58.547Z,98361.59
2022-11-07T19:56:31.073Z,98363.50
2022-11-07T19:59:01.203Z,98369.16
2022-11-07T20:01:33.057Z,98367.91
2022-11-07T20:04:01.366Z,98363.50
2022-11-07T20:06:33.199Z,98366.16
2022-11-07T20:09:01.422Z,98374.69
2022-11-07T20:11:28.409Z,98364.63
2022-11-07T20:14:00.177Z,98363.22
2022-11-07T20:16:30.110Z,98361.59
2022-11-07T20:18:57.546Z,98358.28
2022-11-07T20:21:25.639Z,98363.69
2022-11-07T20:23:53.828Z,98369.47
2022-11-07T20:26:23.299Z,98370.50
2022-11-07T20:28:50.966Z,98374.56
2022-11-07T20:31:28.726Z,98375.00
2022-11-07T20:33:59.228Z,98371.72
2022-11-07T20:36:26.876Z,98384.53
2022-11-07T20:38:55.583Z,98385.91
2022-11-07T20:41:23.617Z,98389.28
2022-11-07T20:44:02.026Z,98386.72
2022-11-07T20:46:30.660Z,98386.75
2022-11-07T20:49:06.126Z,98386.69
2022-11-07T20:51:33.379Z,98397.13
2022-11-07T20:54:00.738Z,98401.53
2022-11-07T20:56:29.015Z,98407.53
2022-11-07T20:58:58.028Z,98402.47
2022-11-07T21:01:39.401Z,98412.91
2022-11-07T21:04:10.120Z,98411.00
2022-11-07T21:06:37.556Z,98410.06
2022-11-07T21:09:05.517Z,98403.00
2022-11-07T21:11:32.779Z,98414.03
2022-11-07T21:14:00.013Z,98409.00
2022-11-07T21:16:27.758Z,98404.97
2022-11-07T21:18:55.731Z,98403.28
2022-11-07T21:21:27.475Z,98413.56
2022-11-07T21:23:57.708Z,98412.22
2022-11-07T21:26:31.661Z,98407.94
2022-11-07T21:28:59.551Z,98412.66
2022-11-07T21:31:29.736Z,98418.25
2022-11-07T21:33:57.572Z,98415.16
2022-11-07T21:36:28.505Z,98413.56
2022-11-07T21:38:57.166Z,98412.81
2022-11-07T21:41:24.843Z,98422.72
2022-11-07T21:43:52.083Z,98419.06
2022-11-07T21:46:28.658Z,98419.72
2022-11-07T21:48:56.119Z,98413.94
2022-11-07T21:51:27.118Z,98404.56
2022-11-07T21:53:54.727Z,98398.38
2022-11-07T21:56:27.855Z,98407.91
2022-11-07T21:59:01.786Z,98397.88
2022-11-07T22:01:30.045Z,98404.84
2022-11-07T22:04:13.344Z,98407.03
2022-11-07T22:06:44.319Z,98401.59
2022-11-07T22:09:16.209Z,98405.44
2022-11-07T22:11:44.080Z,98402.34
2022-11-07T22:14:20.961Z,98404.22
2022-11-07T22:16:49.821Z,98401.25
2022-11-07T22:19:18.495Z,98396.91
2022-11-07T22:21:45.708Z,98395.78
2022-11-07T22:24:12.636Z,98392.13
2022-11-07T22:26:39.609Z,98390.47
2022-11-07T22:29:06.677Z,98376.28
2022-11-07T22:31:33.788Z,98370.06
2022-11-07T22:34:01.237Z,98374.16
2022-11-07T22:36:29.368Z,98361.06
2022-11-07T22:38:57.915Z,98362.75
2022-11-07T22:41:27.219Z,98350.53
2022-11-07T22:43:55.361Z,98353.75
2022-11-07T22:46:29.802Z,98347.50
2022-11-07T22:48:58.854Z,98337.66
2022-11-07T22:51:35.955Z,98346.22
2022-11-07T22:54:10.344Z,98340.75
2022-11-07T22:56:37.928Z,98348.97
2022-11-07T22:59:06.207Z,98335.50
2022-11-07T23:01:38.296Z,98341.50
2022-11-07T23:04:06.625Z,98347.03
2022-11-07T23:06:34.003Z,98350.78
2022-11-07T23:09:01.516Z,98346.44
2022-11-07T23:11:50.325Z,98342.16
2022-11-07T23:14:20.670Z,98340.34
2022-11-07T23:16:53.457Z,98340.84
2022-11-07T23:19:23.906Z,98344.97
2022-11-07T23:21:53.029Z,98343.47
2022-11-07T23:24:20.734Z,98346.28
2022-11-07T23:26:48.488Z,98343.28
2022-11-07T23:29:23.117Z,98339.34
2022-11-07T23:31:52.028Z,98338.22
2022-11-07T23:34:20.876Z,98343.09
2022-11-07T23:36:51.213Z,98341.59
2022-11-07T23:39:21.107Z,98328.75
2022-11-07T23:41:48.313Z,98326.78
2022-11-07T23:44:15.664Z,98335.47
2022-11-07T23:47:01.727Z,98330.59
2022-11-07T23:49:48.319Z,98333.41
2022-11-07T23:52:15.864Z,98334.66
2022-11-07T23:55:01.737Z,98335.31
2022-11-07T23:57:28.720Z,98326.03
